createdAt,value
2017-08-29T00:00:24.017Z,0.00
2017-08-29T00:01:24.030Z,0.00
2017-08-29T00:02:24.059Z,0.00
2017-08-29T00:03:24.089Z,0.00
2017-08-29T00:04:24.106Z,0.00
2017-08-29T00:05:24.124Z,0.00
2017-08-29T00:06:24.147Z,0.00
2017-08-29T00:07:24.169Z,0.00
2017-08-29T00:08:24.192Z,0.00
2017-08-29T00:09:24.214Z,0.00
2017-08-29T00:10:24.247Z,0.00
2017-08-29T00:11:24.265Z,0.00
2017-08-29T00:12:24.290Z,0.00
2017-08-29T00:13:24.316Z,0.00
2017-08-29T00:14:24.332Z,0.00
2017-08-29T00:15:24.350Z,0.00
2017-08-29T00:16:24.371Z,0.00
2017-08-29T00:17:24.397Z,0.00
2017-08-29T00:18:24.422Z,0.00
2017-08-29T00:19:24.444Z,0.00
2017-08-29T00:20:24.471Z,0.00
2017-08-29T00:21:24.488Z,0.00
2017-08-29T00:22:24.515Z,0.00
2017-08-29T00:23:24.540Z,0.00
2017-08-29T00:24:24.562Z,0.00
2017-08-29T00:25:24.580Z,0.00
2017-08-29T00:26:24.598Z,0.00
2017-08-29T00:27:24.626Z,0.00
2017-08-29T00:28:24.651Z,0.00
2017-08-29T00:29:24.684Z,0.00
2017-08-29T00:30:24.701Z,0.00
2017-08-29T00:31:24.713Z,0.00
2017-08-29T00:32:24.737Z,0.00
2017-08-29T00:33:24.759Z,0.00
2017-08-29T00:34:24.783Z,0.00
2017-08-29T00:35:24.805Z,0.00
2017-08-29T00:36:24.823Z,0.00
2017-08-29T00:37:24.857Z,0.00
2017-08-29T00:38:24.895Z,0.00
2017-08-29T00:39:24.899Z,0.00
2017-08-29T00:40:24.922Z,0.00
2017-08-29T00:41:24.947Z,0.00
2017-08-29T00:42:24.966Z,0.00
2017-08-29T00:43:24.982Z,0.00
2017-08-29T00:44:25.006Z,0.00
2017-08-29T00:45:25.041Z,0.00
2017-08-29T00:46:25.057Z,0.00
2017-08-29T00:47:25.089Z,0.00
2017-08-29T00:48:25.096Z,0.00
2017-08-29T00:49:25.116Z,0.00
2017-08-29T00:50:25.160Z,0.00
2017-08-29T00:51:25.171Z,0.00
2017-08-29T00:52:25.213Z,0.00
2017-08-29T00:53:25.219Z,0.00
2017-08-29T00:54:25.237Z,0.00
2017-08-29T00:55:25.254Z,0.00
2017-08-29T00:56:25.287Z,0.00
2017-08-29T00:57:25.307Z,0.00
2017-08-29T00:58:25.333Z,0.00
2017-08-29T00:59:25.343Z,0.00
2017-08-29T01:00:25.369Z,0.00
2017-08-29T01:01:25.394Z,0.00
2017-08-29T01:02:25.418Z,0.00
2017-08-29T01:03:25.438Z,0.00
2017-08-29T01:04:25.461Z,0.00
2017-08-29T01:05:25.484Z,0.00
2017-08-29T01:06:25.508Z,0.00
2017-08-29T01:07:25.530Z,0.00
2017-08-29T01:08:25.552Z,0.00
2017-08-29T01:09:25.616Z,0.00
2017-08-29T01:10:25.593Z,0.00
2017-08-29T01:11:25.622Z,0.00
2017-08-29T01:12:25.639Z,0.00
2017-08-29T01:13:25.661Z,0.00
2017-08-29T01:14:25.698Z,0.00
2017-08-29T01:15:25.708Z,0.00
2017-08-29T01:16:25.728Z,0.00
2017-08-29T01:17:25.754Z,0.00
2017-08-29T01:18:25.781Z,0.00
2017-08-29T01:19:25.800Z,0.00
2017-08-29T01:20:25.818Z,0.00
2017-08-29T01:21:25.840Z,0.00
2017-08-29T01:22:25.876Z,0.00
2017-08-29T01:23:25.886Z,0.00
2017-08-29T01:24:25.911Z,0.00
2017-08-29T01:25:25.929Z,0.00
2017-08-29T01:26:25.959Z,0.00
2017-08-29T01:27:25.983Z,0.00
2017-08-29T01:28:26.000Z,0.00
2017-08-29T01:29:26.026Z,0.00
2017-08-29T01:30:26.053Z,0.00
2017-08-29T01:31:26.081Z,0.00
2017-08-29T01:32:26.093Z,0.00
2017-08-29T01:33:26.112Z,0.00
2017-08-29T01:34:26.138Z,0.00
2017-08-29T01:35:26.155Z,0.00
2017-08-29T01:36:26.184Z,0.00
2017-08-29T01:37:26.200Z,0.00
2017-08-29T01:38:26.221Z,0.00
2017-08-29T01:39:26.245Z,0.00
2017-08-29T01:40:26.273Z,0.00
2017-08-29T01:41:26.296Z,0.00
2017-08-29T01:42:26.313Z,0.00
2017-08-29T01:43:26.347Z,0.00
2017-08-29T01:44:26.387Z,0.00
2017-08-29T01:45:26.382Z,0.00
2017-08-29T01:46:26.413Z,0.00
2017-08-29T01:47:26.428Z,0.00
2017-08-29T01:48:26.453Z,0.00
2017-08-29T01:49:26.474Z,0.00
2017-08-29T01:50:26.506Z,0.00
2017-08-29T01:51:26.530Z,0.00
2017-08-29T01:52:26.545Z,0.00
2017-08-29T01:53:26.568Z,0.00
2017-08-29T01:54:26.592Z,0.00
2017-08-29T01:55:26.605Z,0.00
2017-08-29T01:56:26.628Z,0.00
2017-08-29T01:57:26.670Z,0.00
2017-08-29T01:58:26.679Z,0.00
2017-08-29T01:59:26.710Z,0.00
2017-08-29T02:00:26.726Z,0.00
2017-08-29T02:01:26.748Z,0.00
2017-08-29T02:02:26.782Z,0.00
2017-08-29T02:03:26.789Z,0.00
2017-08-29T02:04:26.813Z,0.00
2017-08-29T02:05:26.841Z,0.00
2017-08-29T02:06:26.861Z,0.00
2017-08-29T02:07:26.890Z,0.00
2017-08-29T02:08:26.905Z,0.00
2017-08-29T02:09:26.925Z,0.00
2017-08-29T02:10:26.944Z,0.00
2017-08-29T02:11:26.966Z,0.00
2017-08-29T02:12:26.987Z,0.00
2017-08-29T02:13:27.017Z,0.00
2017-08-29T02:14:27.041Z,0.00
2017-08-29T02:15:27.076Z,0.00
2017-08-29T02:16:27.083Z,0.00
2017-08-29T02:17:27.103Z,0.00
2017-08-29T02:18:27.125Z,0.00
2017-08-29T02:19:27.145Z,0.00
2017-08-29T02:20:27.173Z,0.00
2017-08-29T02:21:27.190Z,0.00
2017-08-29T02:22:27.214Z,0.00
2017-08-29T02:23:27.237Z,0.00
2017-08-29T02:24:27.265Z,0.00
2017-08-29T02:25:27.279Z,0.00
2017-08-29T02:26:27.310Z,0.00
2017-08-29T02:27:27.328Z,0.00
2017-08-29T02:28:27.350Z,0.00
2017-08-29T02:29:27.369Z,0.00
2017-08-29T02:30:27.399Z,0.00
2017-08-29T02:31:27.431Z,0.00
2017-08-29T02:32:27.436Z,0.00
2017-08-29T02:33:27.460Z,0.00
2017-08-29T02:34:27.482Z,0.00
2017-08-29T02:35:27.503Z,0.00
2017-08-29T02:36:27.539Z,0.00
2017-08-29T02:37:27.560Z,0.00
2017-08-29T02:38:27.585Z,0.00
2017-08-29T02:39:27.598Z,0.00
2017-08-29T02:40:27.618Z,0.00
2017-08-29T02:41:27.639Z,0.00
2017-08-29T02:42:27.671Z,0.00
2017-08-29T02:43:27.692Z,0.00
2017-08-29T02:44:27.710Z,0.00
2017-08-29T02:45:27.741Z,0.00
2017-08-29T02:46:27.752Z,0.00
2017-08-29T02:47:27.776Z,0.00
2017-08-29T02:48:27.805Z,0.00
2017-08-29T02:49:27.824Z,0.00
2017-08-29T02:50:27.840Z,0.00
2017-08-29T02:51:27.875Z,0.00
2017-08-29T02:52:27.888Z,0.00
2017-08-29T02:53:27.910Z,0.00
2017-08-29T02:54:27.934Z,0.00
2017-08-29T02:55:27.955Z,0.00
2017-08-29T02:56:27.984Z,0.00
2017-08-29T02:57:28.014Z,0.00
2017-08-29T02:58:28.038Z,0.00
2017-08-29T02:59:28.049Z,0.00
2017-08-29T03:00:28.075Z,0.00
2017-08-29T03:01:28.100Z,0.00
2017-08-29T03:02:28.117Z,0.00
2017-08-29T03:03:28.143Z,0.00
2017-08-29T03:04:28.165Z,0.00
2017-08-29T03:05:28.203Z,0.00
2017-08-29T03:06:28.219Z,0.00
2017-08-29T03:07:28.244Z,0.00
2017-08-29T03:08:28.249Z,0.00
2017-08-29T03:09:28.273Z,0.00
2017-08-29T03:10:28.292Z,0.00
2017-08-29T03:11:28.312Z,0.00
2017-08-29T03:12:28.337Z,0.00
2017-08-29T03:13:28.367Z,0.00
2017-08-29T03:14:28.383Z,0.00
2017-08-29T03:15:28.404Z,0.00
2017-08-29T03:16:28.424Z,0.00
2017-08-29T03:17:28.456Z,0.00
2017-08-29T03:18:28.472Z,0.00
2017-08-29T03:19:28.492Z,0.00
2017-08-29T03:20:28.522Z,0.00
2017-08-29T03:21:28.563Z,0.00
2017-08-29T03:22:28.570Z,0.00
2017-08-29T03:23:28.584Z,0.00
2017-08-29T03:24:28.609Z,0.00
2017-08-29T03:25:28.634Z,0.00
2017-08-29T03:26:28.651Z,0.00
2017-08-29T03:27:28.672Z,0.00
2017-08-29T03:28:28.698Z,0.00
2017-08-29T03:29:28.735Z,0.00
2017-08-29T03:30:28.742Z,0.00
2017-08-29T03:31:28.761Z,0.00
2017-08-29T03:32:28.794Z,0.00
2017-08-29T03:33:28.811Z,0.00
2017-08-29T03:34:28.837Z,0.00
2017-08-29T03:35:28.863Z,0.00
2017-08-29T03:36:28.879Z,0.00
2017-08-29T03:37:28.895Z,0.00
2017-08-29T03:38:28.924Z,0.00
2017-08-29T03:39:28.940Z,0.00
2017-08-29T03:40:28.963Z,0.00
2017-08-29T03:41:28.993Z,0.00
2017-08-29T03:42:29.012Z,0.00
2017-08-29T03:43:29.040Z,0.00
2017-08-29T03:44:29.062Z,0.00
2017-08-29T03:45:29.094Z,0.00
2017-08-29T03:46:29.097Z,0.00
2017-08-29T03:47:29.134Z,0.00
2017-08-29T03:48:29.145Z,0.00
2017-08-29T03:49:29.180Z,0.00
2017-08-29T03:50:29.189Z,0.00
2017-08-29T03:51:29.212Z,0.00
2017-08-29T03:52:29.237Z,0.00
2017-08-29T03:53:29.258Z,0.00
2017-08-29T03:54:29.297Z,0.00
2017-08-29T03:55:29.300Z,0.00
2017-08-29T03:56:29.321Z,0.00
2017-08-29T03:57:29.342Z,0.00
2017-08-29T03:58:29.365Z,0.00
2017-08-29T03:59:29.403Z,0.00
2017-08-29T04:00:29.417Z,0.00
2017-08-29T04:01:29.437Z,0.00
2017-08-29T04:02:29.455Z,0.00
2017-08-29T04:03:29.483Z,0.00
2017-08-29T04:04:29.511Z,0.00
2017-08-29T04:05:29.527Z,0.00
2017-08-29T04:06:29.560Z,0.00
2017-08-29T04:07:29.564Z,0.00
2017-08-29T04:08:29.602Z,0.00
2017-08-29T04:09:29.610Z,0.00
2017-08-29T04:10:29.654Z,0.00
2017-08-29T04:11:29.659Z,0.00
2017-08-29T04:12:29.692Z,0.00
2017-08-29T04:13:29.717Z,0.00
2017-08-29T04:14:29.725Z,0.00
2017-08-29T04:15:29.744Z,0.00
2017-08-29T04:16:29.768Z,0.00
2017-08-29T04:17:29.792Z,0.00
2017-08-29T04:18:29.814Z,0.00
2017-08-29T04:19:29.838Z,0.00
2017-08-29T04:20:29.869Z,0.00
2017-08-29T04:21:29.879Z,0.00
2017-08-29T04:22:29.907Z,0.00
2017-08-29T04:23:29.926Z,0.00
2017-08-29T04:24:29.981Z,0.00
2017-08-29T04:25:29.974Z,0.00
2017-08-29T04:26:29.994Z,0.00
2017-08-29T04:27:30.020Z,0.00
2017-08-29T04:28:30.053Z,0.00
2017-08-29T04:29:30.061Z,0.00
2017-08-29T04:30:30.086Z,0.00
2017-08-29T04:31:30.109Z,5.63
2017-08-29T04:32:30.128Z,5.63
2017-08-29T04:33:30.155Z,5.63
2017-08-29T04:34:30.183Z,5.63
2017-08-29T04:35:30.201Z,5.63
2017-08-29T04:36:30.223Z,5.63
2017-08-29T04:37:30.258Z,5.63
2017-08-29T04:38:30.277Z,5.63
2017-08-29T04:39:30.281Z,5.63
2017-08-29T04:40:30.306Z,5.63
2017-08-29T04:41:30.333Z,11.25
2017-08-29T04:42:30.357Z,11.25
2017-08-29T04:43:30.377Z,11.25
2017-08-29T04:44:30.393Z,11.25
2017-08-29T04:45:30.420Z,11.25
2017-08-29T04:46:30.444Z,11.25
2017-08-29T04:47:30.464Z,11.25
2017-08-29T04:48:30.489Z,16.88
2017-08-29T04:49:30.514Z,16.88
2017-08-29T04:50:30.532Z,16.88
2017-08-29T04:51:30.552Z,16.88
2017-08-29T04:52:30.571Z,16.88
2017-08-29T04:53:30.601Z,16.88
2017-08-29T04:54:30.631Z,22.50
2017-08-29T04:55:30.642Z,22.50
2017-08-29T04:56:30.664Z,22.50
2017-08-29T04:57:30.712Z,22.50
2017-08-29T04:58:30.715Z,22.50
2017-08-29T04:59:30.733Z,28.13
2017-08-29T05:00:30.750Z,28.13
2017-08-29T05:01:30.777Z,28.13
2017-08-29T05:02:30.796Z,28.13
2017-08-29T05:03:30.835Z,28.13
2017-08-29T05:04:30.851Z,33.75
2017-08-29T05:05:30.862Z,33.75
2017-08-29T05:06:30.889Z,33.75
2017-08-29T05:07:30.910Z,33.75
2017-08-29T05:08:30.932Z,33.75
2017-08-29T05:09:30.951Z,39.38
2017-08-29T05:10:30.980Z,39.38
2017-08-29T05:11:31.008Z,39.38
2017-08-29T05:12:31.025Z,45.00
2017-08-29T05:13:31.043Z,56.25
2017-08-29T05:14:31.069Z,56.25
2017-08-29T05:15:31.110Z,61.88
2017-08-29T05:16:31.118Z,61.88
2017-08-29T05:17:31.135Z,61.88
2017-08-29T05:18:31.157Z,61.88
2017-08-29T05:19:31.188Z,67.50
2017-08-29T05:20:31.206Z,67.50
2017-08-29T05:21:31.220Z,67.50
2017-08-29T05:22:31.248Z,73.13
2017-08-29T05:23:31.274Z,73.13
2017-08-29T05:24:31.299Z,73.13
2017-08-29T05:25:31.313Z,73.13
2017-08-29T05:26:31.343Z,78.75
2017-08-29T05:27:31.364Z,78.75
2017-08-29T05:28:31.397Z,78.75
2017-08-29T05:29:31.407Z,84.38
2017-08-29T05:30:31.431Z,84.38
2017-08-29T05:31:31.452Z,84.38
2017-08-29T05:32:31.480Z,90.00
2017-08-29T05:33:31.501Z,90.00
2017-08-29T05:34:31.531Z,90.00
2017-08-29T05:35:31.558Z,95.63
2017-08-29T05:36:31.562Z,95.63
2017-08-29T05:37:31.593Z,95.63
2017-08-29T05:38:31.617Z,101.25
2017-08-29T05:39:31.636Z,101.25
2017-08-29T05:40:31.675Z,101.25
2017-08-29T05:41:31.681Z,106.88
2017-08-29T05:42:31.710Z,106.88
2017-08-29T05:43:31.731Z,106.88
2017-08-29T05:44:31.758Z,112.50
2017-08-29T05:45:31.808Z,112.50
2017-08-29T05:46:31.806Z,112.50
2017-08-29T05:47:31.830Z,118.13
2017-08-29T05:48:31.847Z,118.13
2017-08-29T05:49:31.875Z,118.13
2017-08-29T05:50:31.910Z,118.13
2017-08-29T05:51:31.924Z,118.13
2017-08-29T05:52:31.954Z,118.13
2017-08-29T05:53:31.977Z,123.75
2017-08-29T05:54:32.006Z,123.75
2017-08-29T05:55:32.018Z,123.75
2017-08-29T05:56:32.041Z,123.75
2017-08-29T05:57:32.075Z,123.75
2017-08-29T05:58:32.102Z,129.38
2017-08-29T05:59:32.121Z,129.38
2017-08-29T06:00:32.141Z,135.00
2017-08-29T06:01:32.162Z,135.00
2017-08-29T06:02:32.195Z,135.00
2017-08-29T06:03:32.217Z,140.63
2017-08-29T06:04:32.231Z,140.63
2017-08-29T06:05:32.257Z,140.63
2017-08-29T06:06:32.287Z,146.25
2017-08-29T06:07:32.306Z,146.25
2017-08-29T06:08:32.328Z,146.25
2017-08-29T06:09:32.369Z,151.88
2017-08-29T06:10:32.393Z,151.88
2017-08-29T06:11:32.417Z,151.88
2017-08-29T06:12:32.433Z,151.88
2017-08-29T06:13:32.455Z,151.88
2017-08-29T06:14:32.484Z,157.50
2017-08-29T06:15:32.505Z,157.50
2017-08-29T06:16:32.546Z,157.50
2017-08-29T06:17:32.566Z,157.50
2017-08-29T06:18:32.581Z,168.75
2017-08-29T06:19:32.608Z,163.13
2017-08-29T06:20:32.637Z,163.13
2017-08-29T06:21:32.655Z,168.75
2017-08-29T06:22:32.679Z,168.75
2017-08-29T06:23:32.709Z,168.75
2017-08-29T06:24:32.740Z,174.38
2017-08-29T06:25:32.763Z,174.38
2017-08-29T06:26:32.786Z,174.38
2017-08-29T06:27:32.808Z,174.38
2017-08-29T06:28:32.840Z,180.00
2017-08-29T06:29:32.856Z,180.00
2017-08-29T06:30:32.889Z,180.00
2017-08-29T06:31:32.920Z,180.00
2017-08-29T06:32:32.929Z,180.00
2017-08-29T06:33:32.962Z,185.63
2017-08-29T06:34:32.988Z,185.63
2017-08-29T06:35:33.009Z,185.63
2017-08-29T06:36:33.033Z,185.63
2017-08-29T06:37:33.065Z,191.25
2017-08-29T06:38:33.085Z,191.25
2017-08-29T06:39:33.113Z,191.25
2017-08-29T06:40:33.140Z,191.25
2017-08-29T06:41:33.162Z,196.88
2017-08-29T06:42:33.189Z,196.88
2017-08-29T06:43:33.211Z,196.88
2017-08-29T06:44:33.239Z,202.50
2017-08-29T06:45:33.283Z,202.50
2017-08-29T06:46:33.295Z,202.50
2017-08-29T06:47:33.312Z,202.50
2017-08-29T06:48:33.344Z,202.50
2017-08-29T06:49:33.365Z,202.50
2017-08-29T06:50:33.395Z,202.50
2017-08-29T06:51:33.425Z,208.13
2017-08-29T06:52:33.442Z,208.13
2017-08-29T06:53:33.471Z,208.13
2017-08-29T06:54:33.501Z,208.13
2017-08-29T06:55:33.523Z,208.13
2017-08-29T06:56:33.552Z,208.13
2017-08-29T06:57:33.578Z,213.75
2017-08-29T06:58:33.596Z,213.75
2017-08-29T06:59:33.625Z,213.75
2017-08-29T07:00:33.650Z,213.75
2017-08-29T07:01:33.680Z,213.75
2017-08-29T07:02:33.699Z,213.75
2017-08-29T07:03:33.728Z,213.75
2017-08-29T07:04:33.756Z,213.75
2017-08-29T07:05:33.780Z,213.75
2017-08-29T07:06:33.802Z,219.38
2017-08-29T07:07:33.838Z,213.75
2017-08-29T07:08:33.862Z,219.38
2017-08-29T07:09:33.881Z,219.38
2017-08-29T07:10:33.912Z,219.38
2017-08-29T07:11:33.940Z,219.38
2017-08-29T07:12:33.960Z,219.38
2017-08-29T07:13:33.991Z,219.38
2017-08-29T07:14:34.006Z,219.38
2017-08-29T07:15:34.045Z,219.38
2017-08-29T07:16:34.067Z,219.38
2017-08-29T07:17:34.097Z,219.38
2017-08-29T07:18:34.136Z,225.00
2017-08-29T07:19:34.143Z,225.00
2017-08-29T07:20:34.168Z,225.00
2017-08-29T07:21:34.190Z,225.00
2017-08-29T07:22:34.218Z,225.00
2017-08-29T07:23:34.246Z,225.00
2017-08-29T07:24:34.276Z,225.00
2017-08-29T07:25:34.290Z,225.00
2017-08-29T07:26:34.316Z,225.00
2017-08-29T07:27:34.347Z,225.00
2017-08-29T07:28:34.380Z,225.00
2017-08-29T07:29:34.401Z,225.00
2017-08-29T07:30:34.426Z,225.00
2017-08-29T07:31:34.449Z,225.00
2017-08-29T07:32:34.478Z,225.00
2017-08-29T07:33:34.499Z,225.00
2017-08-29T07:34:34.542Z,225.00
2017-08-29T07:35:34.556Z,225.00
2017-08-29T07:36:34.573Z,225.00
2017-08-29T07:37:34.599Z,225.00
2017-08-29T07:38:34.629Z,225.00
2017-08-29T07:39:34.651Z,225.00
2017-08-29T07:40:34.680Z,225.00
2017-08-29T07:41:34.707Z,225.00
2017-08-29T07:42:34.751Z,225.00
2017-08-29T07:43:34.758Z,225.00
2017-08-29T07:44:34.780Z,225.00
2017-08-29T07:45:34.812Z,225.00
2017-08-29T07:46:34.834Z,225.00
2017-08-29T07:47:34.862Z,225.00
2017-08-29T07:48:34.900Z,230.63
2017-08-29T07:49:34.934Z,253.13
2017-08-29T07:50:34.939Z,483.75
2017-08-29T07:51:34.966Z,731.25
2017-08-29T07:52:34.998Z,781.88
2017-08-29T07:53:35.016Z,781.88
2017-08-29T07:54:35.053Z,781.88
2017-08-29T07:55:35.064Z,770.63
2017-08-29T07:56:35.101Z,770.63
2017-08-29T07:57:35.114Z,770.63
2017-08-29T07:58:35.146Z,759.38
2017-08-29T07:59:35.174Z,748.13
2017-08-29T08:00:35.194Z,753.75
2017-08-29T08:01:35.222Z,748.13
2017-08-29T08:02:35.248Z,748.13
2017-08-29T08:03:35.271Z,748.13
2017-08-29T08:04:35.297Z,736.88
2017-08-29T08:05:35.322Z,731.25
2017-08-29T08:06:35.349Z,720.00
2017-08-29T08:07:35.376Z,720.00
2017-08-29T08:08:35.399Z,714.38
2017-08-29T08:09:35.437Z,708.75
2017-08-29T08:10:35.452Z,703.13
2017-08-29T08:11:35.479Z,691.88
2017-08-29T08:12:35.501Z,663.75
2017-08-29T08:13:35.535Z,646.88
2017-08-29T08:14:35.563Z,635.63
2017-08-29T08:15:35.583Z,635.63
2017-08-29T08:16:35.605Z,624.38
2017-08-29T08:17:35.638Z,618.75
2017-08-29T08:18:35.662Z,630.00
2017-08-29T08:19:35.682Z,596.25
2017-08-29T08:20:35.715Z,579.38
2017-08-29T08:21:35.738Z,590.63
2017-08-29T08:22:35.764Z,601.88
2017-08-29T08:23:35.791Z,562.50
2017-08-29T08:24:35.818Z,393.75
2017-08-29T08:25:35.840Z,208.13
2017-08-29T08:26:35.872Z,180.00
2017-08-29T08:27:35.898Z,180.00
2017-08-29T08:28:35.936Z,174.38
2017-08-29T08:29:35.953Z,174.38
2017-08-29T08:30:35.971Z,168.75
2017-08-29T08:31:36.000Z,168.75
2017-08-29T08:32:36.024Z,163.13
2017-08-29T08:33:36.067Z,157.50
2017-08-29T08:34:36.106Z,151.88
2017-08-29T08:35:36.101Z,151.88
2017-08-29T08:36:36.125Z,146.25
2017-08-29T08:37:36.150Z,146.25
2017-08-29T08:38:36.175Z,146.25
2017-08-29T08:39:36.204Z,146.25
2017-08-29T08:40:36.225Z,140.63
2017-08-29T08:41:36.267Z,140.63
2017-08-29T08:42:36.277Z,140.63
2017-08-29T08:43:36.301Z,140.63
2017-08-29T08:44:36.329Z,140.63
2017-08-29T08:45:36.354Z,135.00
2017-08-29T08:46:36.382Z,135.00
2017-08-29T08:47:36.405Z,135.00
2017-08-29T08:48:36.452Z,135.00
2017-08-29T08:49:36.453Z,135.00
2017-08-29T08:50:36.481Z,135.00
2017-08-29T08:51:36.513Z,129.38
2017-08-29T08:52:36.612Z,129.38
2017-08-29T08:53:36.566Z,129.38
2017-08-29T08:54:36.580Z,129.38
2017-08-29T08:55:36.619Z,129.38
2017-08-29T08:56:36.637Z,129.38
2017-08-29T08:57:36.659Z,129.38
2017-08-29T08:58:36.681Z,123.75
2017-08-29T08:59:36.711Z,123.75
2017-08-29T09:00:36.729Z,123.75
2017-08-29T09:01:36.766Z,123.75
2017-08-29T09:02:36.787Z,123.75
2017-08-29T09:03:36.811Z,123.75
2017-08-29T09:04:36.844Z,123.75
2017-08-29T09:05:36.864Z,123.75
2017-08-29T09:06:36.884Z,123.75
2017-08-29T09:07:36.910Z,123.75
2017-08-29T09:08:36.937Z,123.75
2017-08-29T09:09:36.959Z,123.75
2017-08-29T09:10:36.998Z,123.75
2017-08-29T09:11:37.017Z,123.75
2017-08-29T09:12:37.049Z,118.13
2017-08-29T09:13:37.064Z,118.13
2017-08-29T09:14:37.088Z,118.13
2017-08-29T09:15:37.108Z,118.13
2017-08-29T09:16:37.144Z,118.13
2017-08-29T09:17:37.163Z,118.13
2017-08-29T09:18:37.186Z,112.50
2017-08-29T09:19:37.208Z,112.50
2017-08-29T09:20:37.240Z,112.50
2017-08-29T09:21:37.261Z,112.50
2017-08-29T09:22:37.294Z,112.50
2017-08-29T09:23:37.321Z,106.88
2017-08-29T09:24:37.347Z,106.88
2017-08-29T09:25:37.362Z,106.88
2017-08-29T09:26:37.402Z,106.88
2017-08-29T09:27:37.409Z,106.88
2017-08-29T09:28:37.436Z,106.88
2017-08-29T09:29:37.462Z,106.88
2017-08-29T09:30:37.486Z,106.88
2017-08-29T09:31:37.518Z,106.88
2017-08-29T09:32:37.539Z,101.25
2017-08-29T09:33:37.568Z,101.25
2017-08-29T09:34:37.597Z,101.25
2017-08-29T09:35:37.610Z,101.25
2017-08-29T09:36:37.639Z,101.25
2017-08-29T09:37:37.668Z,101.25
2017-08-29T09:38:37.686Z,101.25
2017-08-29T09:39:37.713Z,101.25
2017-08-29T09:40:37.743Z,101.25
2017-08-29T09:41:37.760Z,101.25
2017-08-29T09:42:37.785Z,101.25
2017-08-29T09:43:37.845Z,101.25
2017-08-29T09:44:37.862Z,101.25
2017-08-29T09:45:37.879Z,101.25
2017-08-29T09:46:37.888Z,101.25
2017-08-29T09:47:37.918Z,101.25
2017-08-29T09:48:37.944Z,95.63
2017-08-29T09:49:37.993Z,95.63
2017-08-29T09:50:37.989Z,95.63
2017-08-29T09:51:38.010Z,95.63
2017-08-29T09:52:38.053Z,95.63
2017-08-29T09:53:38.057Z,95.63
2017-08-29T09:54:38.090Z,95.63
2017-08-29T09:55:38.110Z,95.63
2017-08-29T09:56:38.149Z,95.63
2017-08-29T09:57:38.169Z,95.63
2017-08-29T09:58:38.186Z,95.63
2017-08-29T09:59:38.218Z,95.63
2017-08-29T10:00:38.237Z,95.63
2017-08-29T10:01:38.271Z,95.63
2017-08-29T10:02:38.287Z,95.63
2017-08-29T10:03:38.314Z,95.63
2017-08-29T10:04:38.341Z,90.00
2017-08-29T10:05:38.369Z,90.00
2017-08-29T10:06:38.385Z,90.00
2017-08-29T10:07:38.410Z,90.00
2017-08-29T10:08:38.463Z,90.00
2017-08-29T10:09:38.465Z,90.00
2017-08-29T10:10:38.493Z,90.00
2017-08-29T10:11:38.511Z,90.00
2017-08-29T10:12:38.563Z,90.00
2017-08-29T10:13:38.563Z,90.00
2017-08-29T10:14:38.592Z,90.00
2017-08-29T10:15:38.609Z,90.00
2017-08-29T10:16:38.637Z,90.00
2017-08-29T10:17:38.660Z,90.00
2017-08-29T10:18:38.691Z,90.00
2017-08-29T10:19:38.714Z,90.00
2017-08-29T10:20:38.742Z,90.00
2017-08-29T10:21:38.765Z,84.38
2017-08-29T10:22:38.790Z,84.38
2017-08-29T10:23:38.810Z,84.38
2017-08-29T10:24:38.845Z,84.38
2017-08-29T10:25:38.872Z,84.38
2017-08-29T10:26:38.889Z,84.38
2017-08-29T10:27:38.912Z,84.38
2017-08-29T10:28:38.940Z,84.38
2017-08-29T10:29:38.962Z,84.38
2017-08-29T10:30:38.988Z,84.38
2017-08-29T10:31:39.029Z,84.38
2017-08-29T10:32:39.045Z,84.38
2017-08-29T10:33:39.069Z,84.38
2017-08-29T10:34:39.092Z,84.38
2017-08-29T10:35:39.118Z,84.38
2017-08-29T10:36:39.146Z,84.38
2017-08-29T10:37:39.172Z,84.38
2017-08-29T10:38:39.188Z,84.38
2017-08-29T10:39:39.221Z,84.38
2017-08-29T10:40:39.244Z,84.38
2017-08-29T10:41:39.273Z,84.38
2017-08-29T10:42:39.288Z,84.38
2017-08-29T10:43:39.336Z,84.38
2017-08-29T10:44:39.340Z,84.38
2017-08-29T10:45:39.398Z,84.38
2017-08-29T10:46:39.404Z,84.38
2017-08-29T10:47:39.416Z,84.38
2017-08-29T10:48:39.442Z,84.38
2017-08-29T10:49:39.488Z,84.38
2017-08-29T10:50:39.498Z,78.75
2017-08-29T10:51:39.519Z,78.75
2017-08-29T10:52:39.572Z,78.75
2017-08-29T10:53:39.564Z,78.75
2017-08-29T10:54:39.592Z,78.75
2017-08-29T10:55:39.620Z,78.75
2017-08-29T10:56:39.659Z,78.75
2017-08-29T10:57:39.671Z,78.75
2017-08-29T10:58:39.691Z,78.75
2017-08-29T10:59:39.714Z,78.75
2017-08-29T11:00:39.747Z,78.75
2017-08-29T11:01:39.773Z,78.75
2017-08-29T11:02:39.800Z,78.75
2017-08-29T11:03:39.816Z,78.75
2017-08-29T11:04:39.839Z,78.75
2017-08-29T11:05:39.868Z,78.75
2017-08-29T11:06:39.890Z,78.75
2017-08-29T11:07:39.920Z,78.75
2017-08-29T11:08:39.938Z,78.75
2017-08-29T11:09:39.962Z,78.75
2017-08-29T11:10:40.001Z,78.75
2017-08-29T11:11:40.016Z,78.75
2017-08-29T11:12:40.042Z,78.75
2017-08-29T11:13:40.074Z,78.75
2017-08-29T11:14:40.096Z,78.75
2017-08-29T11:15:40.122Z,78.75
2017-08-29T11:16:40.146Z,78.75
2017-08-29T11:17:40.172Z,78.75
2017-08-29T11:18:40.202Z,73.13
2017-08-29T11:19:40.231Z,73.13
2017-08-29T11:20:40.244Z,73.13
2017-08-29T11:21:40.274Z,73.13
2017-08-29T11:22:40.291Z,73.13
2017-08-29T11:23:40.326Z,73.13
2017-08-29T11:24:40.349Z,73.13
2017-08-29T11:25:40.366Z,73.13
2017-08-29T11:26:40.392Z,73.13
2017-08-29T11:27:40.416Z,73.13
2017-08-29T11:28:40.438Z,73.13
2017-08-29T11:29:40.476Z,73.13
2017-08-29T11:30:40.493Z,73.13
2017-08-29T11:31:40.521Z,73.13
2017-08-29T11:32:40.557Z,73.13
2017-08-29T11:33:40.572Z,73.13
2017-08-29T11:34:40.598Z,73.13
2017-08-29T11:35:40.616Z,73.13
2017-08-29T11:36:40.642Z,73.13
2017-08-29T11:37:40.674Z,73.13
2017-08-29T11:38:40.693Z,73.13
2017-08-29T11:39:40.732Z,67.50
2017-08-29T11:40:40.745Z,67.50
2017-08-29T11:41:40.771Z,67.50
2017-08-29T11:42:40.802Z,67.50
2017-08-29T11:43:40.818Z,67.50
2017-08-29T11:44:40.843Z,67.50
2017-08-29T11:45:40.871Z,67.50
2017-08-29T11:46:40.902Z,67.50
2017-08-29T11:47:40.931Z,67.50
2017-08-29T11:48:40.943Z,67.50
2017-08-29T11:49:40.966Z,67.50
2017-08-29T11:50:40.995Z,67.50
2017-08-29T11:51:41.029Z,67.50
2017-08-29T11:52:41.050Z,67.50
2017-08-29T11:53:41.072Z,67.50
2017-08-29T11:54:41.103Z,73.13
2017-08-29T11:55:41.123Z,73.13
2017-08-29T11:56:41.144Z,73.13
2017-08-29T11:57:41.168Z,73.13
2017-08-29T11:58:41.197Z,73.13
2017-08-29T11:59:41.217Z,73.13
2017-08-29T12:00:41.244Z,73.13
2017-08-29T12:01:41.269Z,73.13
2017-08-29T12:02:41.293Z,73.13
2017-08-29T12:03:41.315Z,73.13
2017-08-29T12:04:41.355Z,73.13
2017-08-29T12:05:41.367Z,73.13
2017-08-29T12:06:41.393Z,73.13
2017-08-29T12:07:41.419Z,73.13
2017-08-29T12:08:41.446Z,73.13
2017-08-29T12:09:41.463Z,73.13
2017-08-29T12:10:41.497Z,73.13
2017-08-29T12:11:41.567Z,73.13
2017-08-29T12:12:41.544Z,73.13
2017-08-29T12:13:41.569Z,73.13
2017-08-29T12:14:41.599Z,73.13
2017-08-29T12:15:41.630Z,73.13
2017-08-29T12:16:41.644Z,73.13
2017-08-29T12:17:41.674Z,73.13
2017-08-29T12:18:41.708Z,73.13
2017-08-29T12:19:41.725Z,73.13
2017-08-29T12:20:41.747Z,73.13
2017-08-29T12:21:41.771Z,73.13
2017-08-29T12:22:41.793Z,73.13
2017-08-29T12:23:41.841Z,73.13
2017-08-29T12:24:41.853Z,73.13
2017-08-29T12:25:41.873Z,73.13
2017-08-29T12:26:41.895Z,73.13
2017-08-29T12:27:41.922Z,73.13
2017-08-29T12:28:41.943Z,73.13
2017-08-29T12:29:41.986Z,73.13
2017-08-29T12:30:42.000Z,73.13
2017-08-29T12:31:42.029Z,73.13
2017-08-29T12:32:42.048Z,73.13
2017-08-29T12:33:42.071Z,73.13
2017-08-29T12:34:42.098Z,73.13
2017-08-29T12:35:42.120Z,73.13
2017-08-29T12:36:42.154Z,73.13
2017-08-29T12:37:42.169Z,73.13
2017-08-29T12:38:42.194Z,73.13
2017-08-29T12:39:42.222Z,73.13
2017-08-29T12:40:42.246Z,73.13
2017-08-29T12:41:42.274Z,73.13
2017-08-29T12:42:42.327Z,73.13
2017-08-29T12:43:42.321Z,73.13
2017-08-29T12:44:42.344Z,73.13
2017-08-29T12:45:42.395Z,73.13
2017-08-29T12:46:42.399Z,73.13
2017-08-29T12:47:42.421Z,73.13
2017-08-29T12:48:42.447Z,73.13
2017-08-29T12:49:42.469Z,73.13
2017-08-29T12:50:42.496Z,73.13
2017-08-29T12:51:42.517Z,73.13
2017-08-29T12:52:42.542Z,73.13
2017-08-29T12:53:42.575Z,73.13